Time;durP1;ratioP1;P1;durP2;ratioP2;P2;SDS_P1;SDS_P2;PMS_P1;PMS_P2;Temp;Humidity;BMP_temperature;BMP_pressure;BME280_temperature;BME280_humidity;BME280_pressure;Samples;Min_cycle;Max_cycle;Signal;HPM_P1;HPM_P2
2021/04/02 00:00:58;;;;;;;8.10;1.33;;;4.10;99.30;;;;;;5086343;28;20062;-66
2021/04/02 00:03:26;;;;;;;5.85;1.38;;;4.10;99.30;;;;;;5087930;28;20097;-66
2021/04/02 00:05:53;;;;;;;10.00;1.60;;;4.10;99.30;;;;;;5089619;28;20048;-66
2021/04/02 00:08:19;;;;;;;6.50;1.23;;;4.10;99.40;;;;;;5087549;28;20379;-66
2021/04/02 00:10:52;;;;;;;5.60;1.02;;;4.10;99.40;;;;;;5089464;28;20033;-66
2021/04/02 00:13:22;;;;;;;7.50;1.33;;;4.10;99.20;;;;;;5088681;28;20050;-66
2021/04/02 00:15:49;;;;;;;9.50;2.28;;;4.10;99.00;;;;;;5088375;28;20074;-66
2021/04/02 00:18:17;;;;;;;8.48;1.98;;;4.10;99.00;;;;;;5089676;28;20048;-66
2021/04/02 00:20:43;;;;;;;9.95;1.73;;;4.20;99.00;;;;;;5089754;28;20135;-66
2021/04/02 00:23:09;;;;;;;6.88;1.80;;;4.20;99.00;;;;;;5087872;28;20066;-66
2021/04/02 00:25:36;;;;;;;7.18;1.20;;;4.10;98.90;;;;;;5088508;28;20500;-66
2021/04/02 00:28:07;;;;;;;6.65;1.80;;;4.10;99.10;;;;;;5089997;28;20090;-66
2021/04/02 00:30:43;;;;;;;6.75;1.33;;;4.00;99.00;;;;;;5089904;28;20103;-66
2021/04/02 00:33:09;;;;;;;;;;;4.10;99.00;;;;;;5089298;28;20958;-66
2021/04/02 00:35:36;;;;;;;9.45;1.25;;;4.00;99.10;;;;;;5086706;28;19951;-66
2021/04/02 00:38:03;;;;;;;4.65;0.95;;;3.90;99.20;;;;;;5089950;28;20040;-66
2021/04/02 00:40:34;;;;;;;12.43;1.63;;;4.00;99.00;;;;;;5089132;28;20077;-66
2021/04/02 00:43:01;;;;;;;6.72;1.08;;;4.00;99.10;;;;;;5088226;28;20501;-66
2021/04/02 00:45:27;;;;;;;6.03;0.95;;;3.90;99.10;;;;;;5087372;28;20175;-66
2021/04/02 00:47:54;;;;;;;7.00;1.70;;;4.00;99.20;;;;;;5088503;28;20539;-66
2021/04/02 00:50:20;;;;;;;5.32;1.40;;;4.00;99.30;;;;;;5088273;28;20126;-66
2021/04/02 00:52:46;;;;;;;5.82;1.20;;;3.90;99.30;;;;;;5089095;28;20056;-66
2021/04/02 00:55:12;;;;;;;9.45;1.40;;;3.90;99.30;;;;;;5089817;28;20765;-66
2021/04/02 00:57:37;;;;;;;6.03;1.30;;;3.90;99.40;;;;;;5090753;28;20054;-66
2021/04/02 01:00:08;;;;;;;5.05;1.33;;;3.90;99.30;;;;;;5089026;28;20127;-66
2021/04/02 01:02:34;;;;;;;4.97;1.15;;;3.90;99.10;;;;;;5087486;28;20052;-66
2021/04/02 01:05:05;;;;;;;5.22;0.90;;;3.90;99.00;;;;;;5088722;28;20063;-66
2021/04/02 01:07:31;;;;;;;7.35;1.35;;;3.90;99.10;;;;;;5087492;28;20043;-66
2021/04/02 01:09:56;;;;;;;7.88;2.58;;;3.90;99.10;;;;;;5089269;28;20048;-66
2021/04/02 01:12:22;;;;;;;9.38;1.23;;;3.90;99.10;;;;;;5088230;28;20032;-66
2021/04/02 01:14:48;;;;;;;6.68;1.13;;;3.90;99.10;;;;;;5087677;28;20544;-66
2021/04/02 01:17:14;;;;;;;5.57;1.02;;;3.80;98.90;;;;;;5086790;28;20662;-66
2021/04/02 01:19:46;;;;;;;8.93;1.55;;;3.80;98.80;;;;;;5114590;27;20093;-66
2021/04/02 01:22:22;;;;;;;5.85;1.20;;;3.90;98.80;;;;;;5084917;28;20036;-66
2021/04/02 01:25:01;;;;;;;;;;;3.80;99.10;;;;;;5086781;28;20044;-66
2021/04/02 01:27:39;;;;;;;3.60;0.90;;;3.80;99.50;;;;;;5083874;28;19924;-66
2021/04/02 01:30:08;;;;;;;8.32;1.40;;;3.70;99.50;;;;;;5086952;28;20055;-66
2021/04/02 01:32:44;;;;;;;10.40;1.20;;;3.70;99.60;;;;;;5086006;28;20115;-66
2021/04/02 01:35:14;;;;;;;;;;;3.70;99.80;;;;;;5086722;28;20039;-66
2021/04/02 01:37:51;;;;;;;7.88;1.10;;;3.80;99.80;;;;;;5087052;28;19916;-66
2021/04/02 01:40:19;;;;;;;5.78;1.40;;;3.80;99.70;;;;;;5086035;28;20115;-66
2021/04/02 01:42:46;;;;;;;7.10;1.38;;;3.80;99.90;;;;;;5088569;28;20036;-66
2021/04/02 01:45:15;;;;;;;7.60;1.70;;;3.80;99.80;;;;;;5086980;28;20161;-66
2021/04/02 01:47:41;;;;;;;6.20;1.38;;;3.80;99.90;;;;;;5087732;28;20043;-66
2021/04/02 01:50:11;;;;;;;5.38;1.90;;;3.80;99.90;;;;;;5088514;28;20036;-66
2021/04/02 01:52:36;;;;;;;9.30;1.70;;;3.80;99.90;;;;;;5086050;28;20043;-66
2021/04/02 01:55:03;;;;;;;5.35;1.42;;;3.90;99.90;;;;;;5088005;28;20040;-66
2021/04/02 01:57:30;;;;;;;11.90;1.77;;;3.90;99.90;;;;;;5086389;28;20044;-66
2021/04/02 01:59:57;;;;;;;9.98;1.80;;;3.90;99.90;;;;;;5086300;28;20039;-66
2021/04/02 02:02:23;;;;;;;8.18;2.20;;;3.90;99.90;;;;;;5084150;28;20042;-66
2021/04/02 02:04:51;;;;;;;8.82;2.17;;;3.90;99.90;;;;;;5088738;28;20434;-66
2021/04/02 02:07:17;;;;;;;11.10;2.13;;;3.90;99.90;;;;;;5088012;28;20104;-66
2021/04/02 02:09:45;;;;;;;15.75;3.15;;;4.00;99.90;;;;;;5087570;28;20046;-66
2021/04/02 02:12:15;;;;;;;19.35;3.45;;;4.00;99.90;;;;;;5087714;28;20074;-66
2021/04/02 02:14:46;;;;;;;14.63;2.30;;;4.00;99.90;;;;;;5087983;28;20040;-66
2021/04/02 02:17:16;;;;;;;12.88;2.30;;;4.00;99.90;;;;;;5089039;28;20047;-66
2021/04/02 02:19:43;;;;;;;7.60;2.42;;;4.00;99.90;;;;;;5083874;28;21849;-66
2021/04/02 02:22:11;;;;;;;9.85;2.95;;;4.00;99.90;;;;;;5088027;28;20032;-66
2021/04/02 02:24:37;;;;;;;13.07;2.80;;;4.00;99.90;;;;;;5087243;28;20036;-66
2021/04/02 02:27:06;;;;;;;10.82;2.67;;;4.00;99.90;;;;;;5084253;28;20041;-66
2021/04/02 02:29:33;;;;;;;8.63;2.40;;;4.00;99.90;;;;;;5086111;28;20040;-66
2021/04/02 02:31:59;;;;;;;13.18;2.85;;;3.90;99.90;;;;;;5083789;28;20501;-66
2021/04/02 02:34:25;;;;;;;12.57;3.85;;;3.90;99.90;;;;;;5085941;28;20032;-66
2021/04/02 02:36:52;;;;;;;9.38;2.50;;;3.90;99.90;;;;;;5083619;28;20539;-66
2021/04/02 02:39:18;;;;;;;12.48;2.33;;;3.90;99.90;;;;;;5084453;28;20075;-66
2021/04/02 02:41:45;;;;;;;12.70;3.78;;;3.90;99.90;;;;;;5085612;28;20486;-66
2021/04/02 02:44:12;;;;;;;9.00;1.98;;;3.90;99.90;;;;;;5083483;28;20032;-66
2021/04/02 02:46:38;;;;;;;7.90;1.75;;;3.90;99.90;;;;;;5085958;28;20474;-66
2021/04/02 02:49:11;;;;;;;11.55;3.08;;;3.90;99.90;;;;;;5084423;28;20130;-66
2021/04/02 02:51:38;;;;;;;9.57;2.10;;;3.90;99.90;;;;;;5083770;28;20054;-66
2021/04/02 02:54:07;;;;;;;9.95;2.33;;;3.90;99.90;;;;;;5085349;28;20039;-66
2021/04/02 02:56:36;;;;;;;11.00;2.00;;;3.90;99.90;;;;;;5085373;28;20176;-66
2021/04/02 02:59:05;;;;;;;8.48;1.88;;;3.90;99.90;;;;;;5081023;28;20040;-66
2021/04/02 03:01:32;;;;;;;12.38;2.25;;;3.90;99.90;;;;;;5086184;28;20125;-66
2021/04/02 03:04:00;;;;;;;11.43;2.03;;;3.90;99.90;;;;;;5082628;28;20035;-66
2021/04/02 03:06:26;;;;;;;6.40;1.73;;;3.90;99.90;;;;;;5083172;28;20028;-66
2021/04/02 03:08:54;;;;;;;9.32;1.40;;;3.90;99.90;;;;;;5084184;28;20044;-66
2021/04/02 03:11:21;;;;;;;8.40;2.22;;;3.90;99.90;;;;;;5084141;28;20398;-66
2021/04/02 03:13:49;;;;;;;9.65;1.77;;;3.90;99.90;;;;;;5088853;28;20056;-66
2021/04/02 03:16:16;;;;;;;10.20;1.77;;;3.90;99.90;;;;;;5088879;28;20935;-66
2021/04/02 03:18:46;;;;;;;10.55;1.60;;;3.90;99.90;;;;;;5086954;28;20039;-66
2021/04/02 03:21:12;;;;;;;7.43;1.27;;;3.80;99.90;;;;;;5086294;28;20118;-66
2021/04/02 03:23:42;;;;;;;11.82;1.50;;;3.90;99.90;;;;;;5087504;28;20051;-66
2021/04/02 03:26:09;;;;;;;7.03;1.63;;;3.80;99.90;;;;;;5088955;28;20044;-66
2021/04/02 03:28:37;;;;;;;7.05;1.80;;;3.80;99.90;;;;;;5087817;28;20098;-66
2021/04/02 03:31:03;;;;;;;10.35;1.45;;;3.90;99.90;;;;;;5088657;28;20070;-66
2021/04/02 03:33:37;;;;;;;11.43;1.60;;;3.80;99.90;;;;;;5087790;28;20041;-66
2021/04/02 03:36:07;;;;;;;9.65;1.20;;;3.90;99.90;;;;;;5086113;28;20048;-66
2021/04/02 03:38:37;;;;;;;11.98;1.70;;;3.90;99.90;;;;;;5089206;28;20079;-66
2021/04/02 03:41:08;;;;;;;11.27;1.73;;;3.80;99.90;;;;;;5087556;28;20422;-66
2021/04/02 03:43:35;;;;;;;17.30;1.67;;;3.80;99.90;;;;;;5088016;28;20044;-66
2021/04/02 03:46:03;;;;;;;15.02;1.85;;;3.80;99.90;;;;;;5086430;28;20119;-66
2021/04/02 03:48:34;;;;;;;15.43;1.90;;;3.80;99.90;;;;;;5088103;28;20036;-66
2021/04/02 03:51:02;;;;;;;14.43;1.75;;;3.80;99.90;;;;;;5086650;28;20457;-66
2021/04/02 03:53:34;;;;;;;7.60;1.38;;;3.80;99.90;;;;;;5087487;28;20512;-66
2021/04/02 03:56:03;;;;;;;13.00;1.52;;;3.70;99.90;;;;;;5088377;28;20034;-66
2021/04/02 03:58:30;;;;;;;9.45;1.17;;;3.70;99.90;;;;;;5086767;28;20040;-66
2021/04/02 04:01:07;;;;;;;17.38;2.28;;;3.70;99.90;;;;;;5086206;28;20036;-66
2021/04/02 04:03:36;;;;;;;8.93;1.65;;;3.70;99.90;;;;;;5087286;28;20117;-66
2021/04/02 04:06:04;;;;;;;9.93;2.88;;;3.80;99.90;;;;;;5083855;28;20501;-66
2021/04/02 04:08:31;;;;;;;10.10;1.48;;;3.80;99.90;;;;;;5087392;28;20063;-66
2021/04/02 04:10:59;;;;;;;14.55;1.83;;;3.70;99.90;;;;;;5087461;28;20036;-66
2021/04/02 04:13:26;;;;;;;9.68;2.10;;;3.70;99.90;;;;;;5087643;28;20028;-66
2021/04/02 04:15:54;;;;;;;17.38;2.80;;;3.80;99.90;;;;;;5088498;28;20040;-66
2021/04/02 04:18:21;;;;;;;13.52;2.22;;;3.80;99.90;;;;;;5088634;28;20056;-66
2021/04/02 04:20:49;;;;;;;16.20;1.73;;;3.90;99.90;;;;;;5086245;28;20127;-66
2021/04/02 04:23:16;;;;;;;11.98;2.00;;;3.90;99.90;;;;;;5085418;28;20051;-66
2021/04/02 04:25:42;;;;;;;12.20;1.95;;;3.90;99.90;;;;;;5088251;28;20135;-66
2021/04/02 04:28:11;;;;;;;8.55;1.90;;;4.00;99.90;;;;;;5090210;28;20032;-66
2021/04/02 04:30:38;;;;;;;14.45;2.40;;;4.00;99.90;;;;;;5089513;28;20067;-66
2021/04/02 04:33:06;;;;;;;12.98;1.65;;;4.00;99.90;;;;;;5088821;28;20085;-66
2021/04/02 04:35:32;;;;;;;11.85;2.65;;;4.10;99.90;;;;;;5086664;28;20039;-66
2021/04/02 04:38:00;;;;;;;11.32;2.05;;;4.10;99.90;;;;;;5090089;28;20056;-66
2021/04/02 04:40:28;;;;;;;17.35;1.30;;;4.20;99.90;;;;;;5088967;28;20093;-66
2021/04/02 04:42:54;;;;;;;15.52;1.88;;;4.20;99.90;;;;;;5089936;28;20036;-66
2021/04/02 04:45:23;;;;;;;11.82;1.60;;;4.30;99.90;;;;;;5086431;28;20043;-66
2021/04/02 04:47:49;;;;;;;14.93;1.85;;;4.40;99.90;;;;;;5084459;28;20090;-66
2021/04/02 04:50:16;;;;;;;14.48;2.90;;;4.40;99.90;;;;;;5090040;28;20111;-66
2021/04/02 04:53:07;;;;;;;7.57;1.70;;;4.40;99.90;;;;;;5089266;28;20073;-66
2021/04/02 04:55:36;;;;;;;11.75;1.48;;;4.50;99.90;;;;;;5077431;28;20498;-66
2021/04/02 04:58:03;;;;;;;12.68;1.95;;;4.60;99.90;;;;;;5089112;28;20051;-66
2021/04/02 05:00:31;;;;;;;14.90;1.90;;;4.60;99.90;;;;;;5088815;28;20036;-66
2021/04/02 05:02:58;;;;;;;10.95;2.38;;;4.60;99.90;;;;;;5089257;28;20036;-66
2021/04/02 05:05:29;;;;;;;12.40;1.67;;;4.70;99.90;;;;;;5085881;28;20482;-66
2021/04/02 05:07:57;;;;;;;11.15;2.03;;;4.60;99.90;;;;;;5084550;28;20494;-66
2021/04/02 05:10:23;;;;;;;10.32;1.83;;;4.70;99.90;;;;;;5085381;28;20048;-66
2021/04/02 05:12:51;;;;;;;12.35;1.88;;;4.70;99.90;;;;;;5089548;28;20036;-66
2021/04/02 05:15:19;;;;;;;11.85;1.20;;;4.80;99.90;;;;;;5088535;28;20048;-66
2021/04/02 05:17:46;;;;;;;7.75;1.70;;;4.80;98.90;;;;;;5088313;28;20115;-66
2021/04/02 05:20:12;;;;;;;11.90;1.40;;;4.80;98.00;;;;;;5086625;28;20040;-66
2021/04/02 05:22:38;;;;;;;8.43;1.15;;;4.80;98.50;;;;;;5088062;28;20431;-66
2021/04/02 05:25:05;;;;;;;10.10;1.58;;;4.80;97.80;;;;;;5088215;28;20032;-66
2021/04/02 05:27:31;;;;;;;14.60;1.20;;;4.80;98.40;;;;;;5089259;28;20066;-66
2021/04/02 05:29:58;;;;;;;14.02;1.05;;;4.90;98.00;;;;;;5088131;28;20032;-66
2021/04/02 05:32:24;;;;;;;6.43;0.90;;;4.80;97.80;;;;;;5087689;28;20528;-66
2021/04/02 05:34:50;;;;;;;8.38;1.02;;;4.90;98.00;;;;;;5088171;28;20111;-66
2021/04/02 05:37:16;;;;;;;10.02;0.80;;;4.90;98.00;;;;;;5087107;28;20218;-66
2021/04/02 05:39:42;;;;;;;8.85;1.20;;;4.90;98.10;;;;;;5089107;28;20040;-66
2021/04/02 05:42:12;;;;;;;7.97;0.93;;;4.90;98.20;;;;;;5082738;28;20098;-66
2021/04/02 05:44:38;;;;;;;7.70;1.08;;;5.00;98.10;;;;;;5085838;28;20474;-66
2021/04/02 05:47:09;;;;;;;9.02;0.60;;;5.00;97.90;;;;;;5087128;28;20059;-66
2021/04/02 05:49:35;;;;;;;7.13;1.52;;;5.00;97.40;;;;;;5087376;28;20063;-66
2021/04/02 05:52:02;;;;;;;10.98;0.88;;;5.10;97.50;;;;;;5087958;28;20044;-66
2021/04/02 05:54:40;;;;;;;4.80;0.95;;;5.10;97.40;;;;;;5085564;28;20036;-66
2021/04/02 05:57:08;;;;;;;8.57;0.80;;;5.10;97.40;;;;;;5084839;28;20039;-66
2021/04/02 05:59:36;;;;;;;6.07;0.85;;;5.10;97.80;;;;;;5085702;28;20044;-66
2021/04/02 06:02:03;;;;;;;9.50;1.08;;;5.10;97.60;;;;;;5085288;28;20036;-66
2021/04/02 06:04:30;;;;;;;8.70;0.80;;;5.10;97.50;;;;;;5086263;28;20063;-66
2021/04/02 06:06:56;;;;;;;14.38;1.33;;;5.20;97.60;;;;;;5088396;28;20455;-66
2021/04/02 06:09:24;;;;;;;13.18;1.20;;;5.20;97.90;;;;;;5088407;28;20416;-66
2021/04/02 06:11:50;;;;;;;8.52;0.90;;;5.20;97.70;;;;;;5087843;28;20044;-66
2021/04/02 06:14:16;;;;;;;11.27;1.60;;;5.30;97.80;;;;;;5091879;28;20040;-66
2021/04/02 06:16:52;;;;;;;7.03;1.13;;;5.30;97.70;;;;;;5093221;28;20044;-66
2021/04/02 06:19:18;;;;;;;11.38;1.27;;;5.30;97.70;;;;;;5093492;28;20044;-66
2021/04/02 06:21:54;;;;;;;7.35;1.75;;;5.40;96.80;;;;;;5087347;28;20046;-66
2021/04/02 06:24:40;;;;;;;12.35;1.33;;;5.50;97.60;;;;;;5087203;28;20043;-66
2021/04/02 06:27:11;;;;;;;7.03;0.85;;;5.50;97.50;;;;;;5086080;28;20044;-66
2021/04/02 06:29:41;;;;;;;9.23;1.50;;;5.60;97.10;;;;;;5086628;28;20044;-66
2021/04/02 06:32:11;;;;;;;11.85;0.93;;;5.60;96.90;;;;;;5085169;28;20036;-66
2021/04/02 06:34:47;;;;;;;6.35;0.70;;;5.60;96.60;;;;;;5083436;28;20117;-66
2021/04/02 06:37:15;;;;;;;17.48;1.00;;;5.60;96.30;;;;;;5083525;28;20048;-66
2021/04/02 06:39:50;;;;;;;7.75;0.77;;;5.70;95.60;;;;;;5086373;28;20059;-66
2021/04/02 06:42:30;;;;;;;12.15;1.02;;;5.80;95.70;;;;;;5086495;28;20581;-66
2021/04/02 06:45:08;;;;;;;16.27;1.83;;;5.70;95.50;;;;;;5080470;28;20044;-66
2021/04/02 06:47:35;;;;;;;13.20;2.50;;;5.70;95.90;;;;;;5089628;28;20048;-66
2021/04/02 06:50:12;;;;;;;10.23;1.20;;;5.70;96.00;;;;;;5090222;28;20429;-66
2021/04/02 06:52:39;;;;;;;15.48;1.40;;;5.70;95.70;;;;;;5090777;28;20044;-66
2021/04/02 06:55:05;;;;;;;6.63;1.02;;;5.70;95.00;;;;;;5090048;28;20161;-66
2021/04/02 06:57:33;;;;;;;5.82;1.05;;;5.70;95.60;;;;;;5091700;28;20047;-66
2021/04/02 07:00:00;;;;;;;7.40;0.73;;;5.60;95.30;;;;;;5090160;28;20040;-66
2021/04/02 07:02:27;;;;;;;8.00;1.00;;;5.70;96.00;;;;;;5087661;28;20063;-66
2021/04/02 07:04:55;;;;;;;16.00;2.10;;;5.70;95.40;;;;;;5087824;28;20032;-66
2021/04/02 07:07:21;;;;;;;6.72;0.90;;;5.80;95.60;;;;;;5087605;28;20036;-66
2021/04/02 07:09:49;;;;;;;9.88;1.33;;;5.80;96.10;;;;;;5090298;28;20044;-66
2021/04/02 07:12:17;;;;;;;11.35;1.30;;;5.80;95.50;;;;;;5089861;28;20044;-66
2021/04/02 07:14:44;;;;;;;11.50;1.25;;;5.80;96.30;;;;;;5089402;28;20150;-66
2021/04/02 07:17:11;;;;;;;12.75;1.55;;;5.90;96.50;;;;;;5089296;28;20062;-66
2021/04/02 07:19:37;;;;;;;21.40;2.00;;;5.90;95.80;;;;;;5088013;28;20036;-66
2021/04/02 07:22:04;;;;;;;9.20;1.30;;;6.00;96.20;;;;;;5090484;28;20082;-66
2021/04/02 07:24:30;;;;;;;10.13;1.17;;;6.00;95.90;;;;;;5087246;28;20036;-66
2021/04/02 07:26:56;;;;;;;13.07;1.52;;;5.90;94.90;;;;;;5087824;28;20038;-66
2021/04/02 07:29:24;;;;;;;11.20;1.17;;;6.00;95.50;;;;;;5088118;28;20071;-66
2021/04/02 07:31:51;;;;;;;18.20;2.15;;;6.00;96.20;;;;;;5087033;28;20040;-66
2021/04/02 07:34:18;;;;;;;16.67;2.00;;;6.00;95.50;;;;;;5089910;28;20075;-66
2021/04/02 07:36:47;;;;;;;14.55;1.77;;;6.10;96.10;;;;;;5089109;28;20044;-66
2021/04/02 07:39:16;;;;;;;12.50;1.60;;;6.20;96.00;;;;;;5088996;28;20069;-66
2021/04/02 07:41:48;;;;;;;8.13;1.27;;;6.20;95.90;;;;;;5087905;28;20154;-66
2021/04/02 07:44:16;;;;;;;14.55;1.55;;;6.30;95.80;;;;;;5087972;28;20040;-66
2021/04/02 07:47:11;;;;;;;9.68;1.48;;;6.30;95.80;;;;;;5088806;28;20998;-66
2021/04/02 07:49:54;;;;;;;15.88;1.35;;;6.20;94.00;;;;;;5089221;28;20048;-66
2021/04/02 07:52:39;;;;;;;10.20;1.17;;;6.30;94.60;;;;;;5089452;28;20040;-66
2021/04/02 07:55:16;;;;;;;10.15;1.20;;;6.30;93.50;;;;;;5089085;28;20047;-66
2021/04/02 07:58:04;;;;;;;7.78;1.20;;;6.40;94.30;;;;;;5089780;28;20035;-66
2021/04/02 08:00:33;;;;;;;11.60;1.20;;;6.40;93.70;;;;;;5088425;28;20057;-66
2021/04/02 08:03:14;;;;;;;15.95;2.33;;;6.40;93.80;;;;;;5087406;28;20036;-66
2021/04/02 08:05:54;;;;;;;11.32;2.25;;;6.40;94.60;;;;;;5080706;28;20040;-66
2021/04/02 08:08:20;;;;;;;12.02;1.30;;;6.50;94.70;;;;;;5089747;28;20058;-66
2021/04/02 08:11:05;;;;;;;8.88;0.98;;;6.50;94.50;;;;;;5088949;28;20122;-66
2021/04/02 08:13:55;;;;;;;18.50;1.98;;;6.60;95.40;;;;;;5087084;28;20396;-66
2021/04/02 08:16:33;;;;;;;12.85;1.20;;;6.70;95.30;;;;;;5087868;28;20930;-66
2021/04/02 08:19:04;;;;;;;13.88;1.90;;;6.70;95.10;;;;;;5089312;28;20042;-66
2021/04/02 08:21:31;;;;;;;15.25;1.75;;;6.70;94.60;;;;;;5089039;28;20067;-66
2021/04/02 08:23:58;;;;;;;13.27;2.38;;;6.80;94.70;;;;;;5088222;28;20039;-66
2021/04/02 08:26:30;;;;;;;12.68;1.73;;;6.80;94.30;;;;;;5086923;28;20059;-66
2021/04/02 08:28:57;;;;;;;10.27;1.27;;;6.80;94.20;;;;;;5085846;28;20040;-66
2021/04/02 08:31:23;;;;;;;13.80;1.80;;;6.80;93.90;;;;;;5087952;28;20482;-66
2021/04/02 08:33:53;;;;;;;10.23;1.13;;;6.90;94.40;;;;;;5086602;28;20086;-66
2021/04/02 08:36:19;;;;;;;8.00;1.27;;;6.90;94.30;;;;;;5088235;28;20047;-66
2021/04/02 08:38:49;;;;;;;13.05;2.38;;;7.00;94.20;;;;;;5089085;28;20529;-66
2021/04/02 08:41:20;;;;;;;11.23;1.45;;;7.00;94.30;;;;;;5087045;28;20048;-66
2021/04/02 08:43:47;;;;;;;10.73;1.42;;;7.20;94.70;;;;;;5084675;28;20040;-66
2021/04/02 08:46:16;;;;;;;10.40;1.10;;;7.20;93.00;;;;;;5086726;28;20085;-66
2021/04/02 08:48:48;;;;;;;12.80;1.60;;;7.30;94.30;;;;;;5088392;28;20040;-67
2021/04/02 08:51:19;;;;;;;9.18;1.58;;;7.30;93.70;;;;;;5088002;28;20067;-67
2021/04/02 08:53:45;;;;;;;21.02;1.63;;;7.30;94.20;;;;;;5086982;28;20039;-67
2021/04/02 08:56:19;;;;;;;13.20;1.50;;;7.40;94.20;;;;;;5082851;28;20046;-67
2021/04/02 08:58:46;;;;;;;10.40;1.67;;;7.50;93.50;;;;;;5084303;28;20054;-67
2021/04/02 09:01:20;;;;;;;23.13;2.38;;;7.50;93.00;;;;;;5086913;28;20028;-66
2021/04/02 09:03:46;;;;;;;18.20;2.13;;;7.50;93.50;;;;;;5086456;28;20127;-67
2021/04/02 09:06:13;;;;;;;14.00;2.10;;;7.60;93.50;;;;;;5087150;28;20140;-66
2021/04/02 09:08:39;;;;;;;12.95;2.83;;;7.70;93.40;;;;;;5085038;28;20044;-67
2021/04/02 09:11:09;;;;;;;13.32;2.47;;;7.70;93.20;;;;;;5086243;28;20115;-67
2021/04/02 09:13:40;;;;;;;12.38;1.20;;;7.80;93.50;;;;;;5087136;28;20414;-67
2021/04/02 09:16:11;;;;;;;9.02;1.42;;;7.80;92.40;;;;;;5086483;28;20047;-67
2021/04/02 09:18:57;;;;;;;8.05;1.40;;;7.60;92.20;;;;;;5087628;28;20039;-67
2021/04/02 09:21:24;;;;;;;11.68;2.15;;;7.60;92.50;;;;;;5083578;28;20028;-67
2021/04/02 09:23:53;;;;;;;14.30;1.75;;;7.70;93.30;;;;;;5084808;28;20428;-67
2021/04/02 09:26:21;;;;;;;11.88;1.30;;;7.70;93.00;;;;;;5086468;28;20032;-66
2021/04/02 09:28:48;;;;;;;12.13;1.77;;;7.70;92.50;;;;;;5084950;28;20489;-66
2021/04/02 09:31:21;;;;;;;16.27;1.45;;;7.70;93.20;;;;;;5083720;28;20036;-67
2021/04/02 09:33:53;;;;;;;14.73;2.28;;;7.90;93.40;;;;;;5085944;28;20062;-67
2021/04/02 09:36:20;;;;;;;8.75;1.40;;;8.00;91.70;;;;;;5085973;28;20062;-67
2021/04/02 09:38:48;;;;;;;15.10;1.80;;;7.90;91.20;;;;;;5085200;28;20399;-67
2021/04/02 09:41:20;;;;;;;8.10;1.25;;;8.00;92.30;;;;;;5085201;28;20051;-67
2021/04/02 09:43:51;;;;;;;14.13;1.55;;;8.00;92.70;;;;;;5085708;28;20043;-67
2021/04/02 09:46:28;;;;;;;14.18;1.77;;;8.10;92.30;;;;;;5086908;28;20046;-67
2021/04/02 09:49:06;;;;;;;10.70;1.35;;;8.10;92.20;;;;;;5086331;28;20119;-67
2021/04/02 09:51:33;;;;;;;10.95;1.40;;;8.10;92.30;;;;;;5082163;28;20055;-67
2021/04/02 09:54:00;;;;;;;7.35;1.08;;;8.00;92.30;;;;;;5085981;28;20324;-67
2021/04/02 09:56:26;;;;;;;9.25;1.33;;;7.90;91.90;;;;;;5086156;28;20490;-67
2021/04/02 09:58:52;;;;;;;9.95;1.00;;;7.80;92.10;;;;;;5087594;28;20081;-67
2021/04/02 10:01:18;;;;;;;9.95;1.80;;;7.90;92.80;;;;;;5084381;28;20028;-67
2021/04/02 10:03:44;;;;;;;6.57;1.02;;;7.80;92.20;;;;;;5086259;28;20040;-67
2021/04/02 10:06:10;;;;;;;7.55;1.00;;;7.90;92.40;;;;;;5087128;28;21447;-67
2021/04/02 10:08:37;;;;;;;10.20;1.45;;;8.10;92.50;;;;;;5085351;28;20066;-67
2021/04/02 10:11:03;;;;;;;7.72;1.38;;;7.80;92.30;;;;;;5086262;28;20044;-67
2021/04/02 10:13:29;;;;;;;7.90;2.05;;;7.90;92.70;;;;;;5086972;28;20043;-67
2021/04/02 10:15:55;;;;;;;10.70;1.40;;;7.90;92.50;;;;;;5087983;28;20085;-67
2021/04/02 10:18:21;;;;;;;9.20;1.95;;;7.90;92.30;;;;;;5087546;28;20112;-67
2021/04/02 10:20:47;;;;;;;10.45;1.10;;;7.70;92.10;;;;;;5087956;28;20040;-67
2021/04/02 10:23:13;;;;;;;9.57;1.00;;;7.80;92.70;;;;;;5089457;28;20038;-67
2021/04/02 10:25:39;;;;;;;8.20;1.10;;;7.80;92.30;;;;;;5091183;28;20135;-67
2021/04/02 10:28:05;;;;;;;15.80;1.92;;;7.80;92.90;;;;;;5090952;28;20177;-67
2021/04/02 10:30:31;;;;;;;8.25;1.23;;;7.90;93.00;;;;;;5090909;28;20483;-67
2021/04/02 10:32:56;;;;;;;14.15;1.48;;;7.90;93.40;;;;;;5086327;28;20429;-67
2021/04/02 10:35:22;;;;;;;12.82;1.90;;;8.00;93.60;;;;;;5090680;28;20040;-67
2021/04/02 10:37:48;;;;;;;11.90;1.55;;;7.90;93.50;;;;;;5090771;28;20153;-67
2021/04/02 10:40:14;;;;;;;9.63;1.48;;;7.90;93.90;;;;;;5087918;28;20048;-67
2021/04/02 10:42:40;;;;;;;10.82;1.77;;;7.80;94.10;;;;;;5088291;28;20044;-67
2021/04/02 10:45:07;;;;;;;15.00;2.15;;;7.80;93.50;;;;;;5088017;28;20049;-67
2021/04/02 10:47:33;;;;;;;8.57;1.13;;;7.80;94.00;;;;;;5088619;28;20044;-67
2021/04/02 10:49:59;;;;;;;5.55;2.05;;;7.80;93.70;;;;;;5087826;28;20042;-67
2021/04/02 10:52:24;;;;;;;13.77;1.92;;;7.90;93.70;;;;;;5088795;28;20032;-67
2021/04/02 10:54:50;;;;;;;13.02;1.77;;;7.90;93.70;;;;;;5090393;28;20123;-67
2021/04/02 10:57:16;;;;;;;10.63;1.20;;;8.00;93.40;;;;;;5088925;28;20115;-67
2021/04/02 10:59:42;;;;;;;14.15;1.63;;;7.90;93.30;;;;;;5088587;28;20073;-67
2021/04/02 11:02:10;;;;;;;17.00;1.35;;;8.00;93.10;;;;;;5087548;28;20649;-67
2021/04/02 11:04:36;;;;;;;4.82;0.70;;;7.90;93.20;;;;;;5089148;28;20073;-67
2021/04/02 11:07:01;;;;;;;10.02;1.25;;;7.90;92.60;;;;;;5089462;28;20089;-67
2021/04/02 11:09:27;;;;;;;12.52;1.20;;;7.90;92.70;;;;;;5090063;28;20048;-67
2021/04/02 11:11:55;;;;;;;8.10;2.00;;;8.00;93.20;;;;;;5092591;28;20039;-67
2021/04/02 11:14:20;;;;;;;7.20;1.70;;;8.00;93.40;;;;;;5088775;28;20032;-67
2021/04/02 11:16:46;;;;;;;9.38;1.50;;;8.10;92.90;;;;;;5084914;28;20368;-67
2021/04/02 11:19:12;;;;;;;14.55;1.35;;;8.10;91.70;;;;;;5079411;28;20040;-67
2021/04/02 11:21:37;;;;;;;6.72;1.20;;;8.10;92.00;;;;;;5086280;28;20501;-67
2021/04/02 11:24:03;;;;;;;10.57;1.95;;;8.10;92.60;;;;;;5088099;28;20051;-67
2021/04/02 11:26:29;;;;;;;14.05;1.80;;;8.00;92.80;;;;;;5087205;28;20047;-67
2021/04/02 11:28:54;;;;;;;13.10;1.60;;;8.00;93.20;;;;;;5090025;28;20040;-67
2021/04/02 11:31:21;;;;;;;13.05;1.85;;;7.90;93.20;;;;;;5087160;28;20475;-67
2021/04/02 11:33:48;;;;;;;14.13;1.80;;;7.80;93.50;;;;;;5083781;28;20545;-67
2021/04/02 11:36:13;;;;;;;12.13;2.22;;;7.80;93.70;;;;;;5089747;28;20126;-67
2021/04/02 11:38:39;;;;;;;12.13;1.75;;;7.80;93.80;;;;;;5089127;28;20047;-67
2021/04/02 11:41:06;;;;;;;7.03;1.08;;;7.70;93.80;;;;;;5090917;28;20063;-67
2021/04/02 11:43:33;;;;;;;10.00;1.13;;;7.70;93.50;;;;;;5089024;28;20036;-67
2021/04/02 11:45:59;;;;;;;11.77;1.83;;;7.70;93.60;;;;;;5087980;28;20043;-67
2021/04/02 11:48:25;;;;;;;13.73;1.10;;;7.70;93.40;;;;;;5088523;28;20032;-67
2021/04/02 11:50:50;;;;;;;6.25;0.80;;;7.70;93.80;;;;;;5089778;28;20043;-67
2021/04/02 11:53:16;;;;;;;13.48;1.20;;;7.80;93.80;;;;;;5087737;28;21737;-67
2021/04/02 11:55:42;;;;;;;9.52;2.05;;;7.80;93.80;;;;;;5089367;28;20393;-67
2021/04/02 11:58:08;;;;;;;12.20;1.75;;;8.00;94.10;;;;;;5090524;28;20032;-67
2021/04/02 12:00:34;;;;;;;10.88;1.27;;;8.10;93.70;;;;;;5090729;28;20063;-67
2021/04/02 12:02:59;;;;;;;11.85;1.23;;;8.20;93.30;;;;;;5090450;28;20404;-67
2021/04/02 12:05:25;;;;;;;10.48;0.95;;;8.30;93.20;;;;;;5087669;28;20043;-67
2021/04/02 12:07:52;;;;;;;7.13;1.00;;;8.40;93.40;;;;;;5090610;28;20043;-67
2021/04/02 12:10:18;;;;;;;11.50;1.20;;;8.50;92.70;;;;;;5088804;28;20036;-67
2021/04/02 12:12:44;;;;;;;8.98;1.40;;;8.50;92.70;;;;;;5087859;28;20044;-67
2021/04/02 12:15:10;;;;;;;7.85;1.40;;;8.60;92.20;;;;;;5085457;28;20036;-67
2021/04/02 12:17:39;;;;;;;5.47;1.25;;;8.60;92.40;;;;;;5090392;28;20071;-67
2021/04/02 12:20:08;;;;;;;6.78;1.52;;;8.60;92.20;;;;;;5090696;28;20046;-67
2021/04/02 12:22:33;;;;;;;7.53;1.17;;;8.60;91.60;;;;;;5089488;28;20050;-67
2021/04/02 12:24:59;;;;;;;13.98;1.73;;;8.60;91.80;;;;;;5087687;28;20040;-67
2021/04/02 12:27:25;;;;;;;7.60;0.98;;;8.50;91.00;;;;;;5089175;28;20474;-67
2021/04/02 12:29:50;;;;;;;11.27;1.42;;;8.40;91.30;;;;;;5089686;28;20047;-67
2021/04/02 12:32:16;;;;;;;11.32;1.73;;;8.50;92.00;;;;;;5089551;28;20040;-67
2021/04/02 12:34:42;;;;;;;11.32;1.02;;;8.60;92.00;;;;;;5087538;28;20036;-67
2021/04/02 12:37:08;;;;;;;11.63;1.65;;;8.60;91.60;;;;;;5090520;28;20470;-67
2021/04/02 12:39:33;;;;;;;18.33;2.05;;;8.60;91.70;;;;;;5087173;28;20533;-67
2021/04/02 12:41:59;;;;;;;15.18;1.35;;;8.50;91.90;;;;;;5088780;28;20475;-67
2021/04/02 12:44:25;;;;;;;11.10;1.17;;;8.60;91.70;;;;;;5088583;28;20561;-67
2021/04/02 12:46:51;;;;;;;10.60;1.10;;;8.70;92.10;;;;;;5087743;28;20040;-67
2021/04/02 12:49:17;;;;;;;9.30;1.20;;;8.80;91.10;;;;;;5087286;28;20066;-67
2021/04/02 12:51:44;;;;;;;10.02;1.83;;;8.70;90.80;;;;;;5089942;28;20032;-67
2021/04/02 12:54:09;;;;;;;13.35;1.27;;;8.80;91.20;;;;;;5088007;28;20032;-67
2021/04/02 12:56:35;;;;;;;6.95;1.67;;;8.80;91.30;;;;;;5090153;28;20371;-67
2021/04/02 12:59:01;;;;;;;13.20;1.90;;;8.80;91.20;;;;;;5088290;28;20573;-67